Time;durP1;ratioP1;P1;durP2;ratioP2;P2;SDS_P1;SDS_P2;PMS_P1;PMS_P2;Temp;Humidity;BMP_temperature;BMP_pressure;BME280_temperature;BME280_humidity;BME280_pressure;Samples;Min_cycle;Max_cycle;Signal;HPM_P1;HPM_P2
2022/10/25 00:00:48;;;;;;;12.45;4.22;;;;;;;;;;5075873;28;20527;-68
2022/10/25 00:03:13;;;;;;;17.00;4.63;;;;;;;;;;5077044;28;20578;-68
2022/10/25 00:05:40;;;;;;;14.73;4.35;;;;;;;;;;5077338;28;20287;-68
2022/10/25 00:08:06;;;;;;;11.88;4.60;;;;;;;;;;5077331;28;20181;-68
2022/10/25 00:10:31;;;;;;;10.63;4.13;;;;;;;;;;5072415;28;20266;-68
2022/10/25 00:12:57;;;;;;;12.70;4.57;;;;;;;;;;5069994;28;20203;-68
2022/10/25 00:15:22;;;;;;;14.88;4.13;;;;;;;;;;5073658;28;20184;-68
2022/10/25 00:17:48;;;;;;;12.65;4.20;;;;;;;;;;5082179;28;20521;-68
2022/10/25 00:20:14;;;;;;;14.68;4.30;;;;;;;;;;5078588;28;20213;-68
2022/10/25 00:22:39;;;;;;;11.02;4.63;;;;;;;;;;5074155;28;20281;-68
2022/10/25 00:25:06;;;;;;;11.85;4.28;;;;;;;;;;5076694;28;20657;-68
2022/10/25 00:27:32;;;;;;;15.15;4.35;;;;;;;;;;5070712;28;20190;-68
2022/10/25 00:29:58;;;;;;;11.00;4.10;;;;;;;;;;5070335;28;20236;-68
2022/10/25 00:32:23;;;;;;;14.00;4.55;;;;;;;;;;5070360;28;20218;-68
2022/10/25 00:34:48;;;;;;;17.55;4.60;;;;;;;;;;5077100;28;20211;-68
2022/10/25 00:37:14;;;;;;;12.77;4.57;;;;;;;;;;5067860;28;20180;-68
2022/10/25 00:39:40;;;;;;;12.48;5.18;;;;;;;;;;5078973;28;20168;-68
2022/10/25 00:42:05;;;;;;;11.85;5.22;;;;;;;;;;5074618;28;20188;-68
2022/10/25 00:44:39;;;;;;;12.07;5.68;;;;;;;;;;5078272;28;20233;-69
2022/10/25 00:47:20;;;;;;;11.25;6.00;;;;;;;;;;5087535;28;20172;-68
2022/10/25 00:49:51;;;;;;;18.17;7.25;;;;;;;;;;5073889;28;20192;-68
2022/10/25 00:52:17;;;;;;;16.10;7.35;;;;;;;;;;5076250;28;20177;-68
2022/10/25 00:54:47;;;;;;;17.27;7.15;;;;;;;;;;5076061;28;20186;-68
2022/10/25 00:57:25;;;;;;;14.68;6.97;;;;;;;;;;5069238;28;20218;-68
2022/10/25 00:59:51;;;;;;;12.45;6.50;;;;;;;;;;5076467;28;20181;-68
2022/10/25 01:02:17;;;;;;;13.65;7.32;;;;;;;;;;5074676;28;20184;-68
2022/10/25 01:04:43;;;;;;;13.30;7.38;;;;;;;;;;5083504;28;20194;-68
2022/10/25 01:07:08;;;;;;;14.93;7.88;;;;;;;;;;5077069;28;20184;-68
2022/10/25 01:09:37;;;;;;;16.17;7.50;;;;;;;;;;5078524;28;20176;-68
2022/10/25 01:12:03;;;;;;;19.08;7.95;;;;;;;;;;5078914;28;20242;-68
2022/10/25 01:14:29;;;;;;;14.98;7.97;;;;;;;;;;5075208;28;20925;-68
2022/10/25 01:17:22;;;;;;;19.52;7.50;;;;;;;;;;5078234;28;20210;-68
2022/10/25 01:20:02;;;;;;;20.08;8.23;;;;;;;;;;5073169;28;20632;-68
2022/10/25 01:22:49;;;;;;;17.65;7.70;;;;;;;;;;5077761;28;20183;-68
2022/10/25 01:25:48;;;;;;;18.00;8.20;;;;;;;;;;5080017;28;20215;-68
2022/10/25 01:28:13;;;;;;;14.80;7.80;;;;;;;;;;5072742;28;20188;-68
2022/10/25 01:31:00;;;;;;;15.30;8.65;;;;;;;;;;5078127;28;20562;-68
2022/10/25 01:33:35;;;;;;;15.60;7.65;;;;;;;;;;5075833;28;20639;-68
2022/10/25 01:36:10;;;;;;;18.25;8.25;;;;;;;;;;5077440;28;20643;-68
2022/10/25 01:38:55;;;;;;;15.02;8.65;;;;;;;;;;5075792;28;20176;-68
2022/10/25 01:41:48;;;;;;;17.40;9.02;;;;;;;;;;5073421;28;20204;-68
2022/10/25 01:44:19;;;;;;;18.85;8.40;;;;;;;;;;5076548;28;20762;-68
2022/10/25 01:47:10;;;;;;;16.98;9.02;;;;;;;;;;5078252;28;20188;-68
2022/10/25 01:49:58;;;;;;;19.60;10.13;;;;;;;;;;5076822;28;20263;-68
2022/10/25 01:52:23;;;;;;;17.10;8.95;;;;;;;;;;5080888;28;20184;-68
2022/10/25 01:54:50;;;;;;;16.15;9.50;;;;;;;;;;5078648;28;20180;-68
2022/10/25 01:57:49;;;;;;;14.50;9.88;;;;;;;;;;5076077;28;20176;-68
2022/10/25 02:00:20;;;;;;;22.65;10.15;;;;;;;;;;5075452;28;20206;-68
2022/10/25 02:02:54;;;;;;;22.20;10.43;;;;;;;;;;5073707;28;20181;-68
2022/10/25 02:05:36;;;;;;;22.10;10.77;;;;;;;;;;5079694;28;20598;-68
2022/10/25 02:08:27;;;;;;;18.23;10.13;;;;;;;;;;5078241;28;20181;-68
2022/10/25 02:11:05;;;;;;;24.77;11.32;;;;;;;;;;5075117;28;20212;-68
2022/10/25 02:13:43;;;;;;;18.70;10.40;;;;;;;;;;5074800;28;20176;-69
2022/10/25 02:16:17;;;;;;;19.83;10.93;;;;;;;;;;5079283;28;20240;-68
2022/10/25 02:18:47;;;;;;;22.55;10.50;;;;;;;;;;5073696;28;20714;-69
2022/10/25 02:21:15;;;;;;;19.77;11.38;;;;;;;;;;5071838;28;20547;-69
2022/10/25 02:23:41;;;;;;;23.02;10.65;;;;;;;;;;5078182;28;20176;-68
2022/10/25 02:26:09;;;;;;;22.13;11.55;;;;;;;;;;5077276;28;20691;-68
2022/10/25 02:28:37;;;;;;;26.10;11.60;;;;;;;;;;5077197;28;20254;-68
2022/10/25 02:31:06;;;;;;;20.17;11.07;;;;;;;;;;5077161;28;20628;-68
2022/10/25 02:33:31;;;;;;;22.40;11.77;;;;;;;;;;5077949;28;20228;-68
2022/10/25 02:36:14;;;;;;;22.88;12.02;;;;;;;;;;5074985;28;20790;-68
2022/10/25 02:38:40;;;;;;;20.60;11.60;;;;;;;;;;5076449;28;20203;-68
2022/10/25 02:41:06;;;;;;;22.45;11.15;;;;;;;;;;5074202;28;20177;-68
2022/10/25 02:43:32;;;;;;;25.25;12.35;;;;;;;;;;5074649;28;20176;-68
2022/10/25 02:45:57;;;;;;;22.50;12.23;;;;;;;;;;5076191;28;20185;-68
2022/10/25 02:48:23;;;;;;;21.40;11.35;;;;;;;;;;5075590;28;20645;-68
2022/10/25 02:50:48;;;;;;;24.25;11.95;;;;;;;;;;5074290;28;20208;-68
2022/10/25 02:53:13;;;;;;;20.55;11.85;;;;;;;;;;5074327;28;20263;-68
2022/10/25 02:55:39;;;;;;;25.55;12.65;;;;;;;;;;5078496;28;20270;-68
2022/10/25 02:58:04;;;;;;;20.75;11.77;;;;;;;;;;5075836;28;20263;-68
2022/10/25 03:00:29;;;;;;;22.20;12.25;;;;;;;;;;5074790;28;20315;-68
2022/10/25 03:02:55;;;;;;;28.52;13.10;;;;;;;;;;5075327;28;20179;-68
2022/10/25 03:05:20;;;;;;;20.65;11.38;;;;;;;;;;5074964;28;20603;-68
2022/10/25 03:07:45;;;;;;;27.27;12.45;;;;;;;;;;5076157;28;20650;-68
2022/10/25 03:10:11;;;;;;;22.38;11.65;;;;;;;;;;5075568;28;20543;-68
2022/10/25 03:12:36;;;;;;;23.17;12.07;;;;;;;;;;5075017;28;20473;-68
2022/10/25 03:15:01;;;;;;;23.73;11.35;;;;;;;;;;5071598;28;20177;-68
2022/10/25 03:17:27;;;;;;;22.27;11.02;;;;;;;;;;5077212;28;20180;-68
2022/10/25 03:19:52;;;;;;;22.38;10.73;;;;;;;;;;5075418;28;20184;-69
2022/10/25 03:22:17;;;;;;;22.85;10.95;;;;;;;;;;5075664;28;20190;-68
2022/10/25 03:24:43;;;;;;;26.67;12.35;;;;;;;;;;5074815;28;20172;-68
2022/10/25 03:27:08;;;;;;;23.73;11.25;;;;;;;;;;5078670;28;20690;-68
2022/10/25 03:29:33;;;;;;;23.83;10.88;;;;;;;;;;5078782;28;20724;-68
2022/10/25 03:31:59;;;;;;;24.65;11.35;;;;;;;;;;5072848;28;20682;-68
2022/10/25 03:34:24;;;;;;;25.50;10.85;;;;;;;;;;5074999;28;20181;-68
2022/10/25 03:36:51;;;;;;;27.48;10.43;;;;;;;;;;5075240;28;20185;-68
2022/10/25 03:39:16;;;;;;;17.80;10.25;;;;;;;;;;5074584;28;20589;-68
2022/10/25 03:41:42;;;;;;;26.13;10.27;;;;;;;;;;5075671;28;20213;-68
2022/10/25 03:44:07;;;;;;;17.52;10.18;;;;;;;;;;5075451;28;20177;-68
2022/10/25 03:46:32;;;;;;;23.08;11.45;;;;;;;;;;5074658;28;20272;-68
2022/10/25 03:48:58;;;;;;;24.73;9.48;;;;;;;;;;5073012;28;20197;-68
2022/10/25 03:51:23;;;;;;;23.85;10.25;;;;;;;;;;5075878;28;20258;-68
2022/10/25 03:53:49;;;;;;;26.85;9.95;;;;;;;;;;5075704;28;20542;-68
2022/10/25 03:56:14;;;;;;;20.25;10.18;;;;;;;;;;5073524;28;20521;-68
2022/10/25 03:58:40;;;;;;;25.50;9.88;;;;;;;;;;5073484;28;20183;-69
2022/10/25 04:01:08;;;;;;;19.70;10.57;;;;;;;;;;5075981;28;20180;-68
2022/10/25 04:03:34;;;;;;;25.63;10.32;;;;;;;;;;5074958;28;20267;-68
2022/10/25 04:05:59;;;;;;;19.45;9.77;;;;;;;;;;5071063;28;20176;-68
2022/10/25 04:08:25;;;;;;;26.92;11.30;;;;;;;;;;5074498;28;20551;-68
2022/10/25 04:10:50;;;;;;;20.55;10.55;;;;;;;;;;5069579;28;20211;-68
2022/10/25 04:13:15;;;;;;;25.13;10.20;;;;;;;;;;5076598;28;20177;-68
2022/10/25 04:15:41;;;;;;;20.95;10.88;;;;;;;;;;5073241;28;20204;-68
2022/10/25 04:18:06;;;;;;;27.65;11.23;;;;;;;;;;5073803;28;20254;-68
2022/10/25 04:20:31;;;;;;;19.38;10.48;;;;;;;;;;5080267;28;20172;-68
2022/10/25 04:22:57;;;;;;;26.15;10.52;;;;;;;;;;5076482;28;20199;-68
2022/10/25 04:25:24;;;;;;;22.65;10.60;;;;;;;;;;5073865;28;20195;-68
2022/10/25 04:27:50;;;;;;;26.58;9.80;;;;;;;;;;5074125;28;20241;-68
2022/10/25 04:30:15;;;;;;;15.90;8.93;;;;;;;;;;5073901;28;20232;-68
2022/10/25 04:32:41;;;;;;;25.08;10.02;;;;;;;;;;5079209;28;20219;-68
2022/10/25 04:35:06;;;;;;;26.13;10.45;;;;;;;;;;5070429;28;20172;-68
2022/10/25 04:37:32;;;;;;;23.75;10.73;;;;;;;;;;5072097;28;20192;-68
2022/10/25 04:39:57;;;;;;;21.42;10.75;;;;;;;;;;5077068;28;20184;-68
2022/10/25 04:42:22;;;;;;;20.85;10.25;;;;;;;;;;5074834;28;20187;-68
2022/10/25 04:44:48;;;;;;;22.73;9.60;;;;;;;;;;5069733;28;20547;-68
2022/10/25 04:47:13;;;;;;;20.08;9.98;;;;;;;;;;5072791;28;20580;-72
2022/10/25 04:49:38;;;;;;;23.08;9.70;;;;;;;;;;5068162;28;20277;-68
2022/10/25 04:52:04;;;;;;;18.83;8.75;;;;;;;;;;5073533;28;20252;-68
2022/10/25 04:54:29;;;;;;;23.00;10.07;;;;;;;;;;5084049;28;20207;-68
2022/10/25 04:56:54;;;;;;;24.70;9.68;;;;;;;;;;5078221;28;20403;-68
2022/10/25 04:59:20;;;;;;;20.23;9.65;;;;;;;;;;5067932;28;20188;-68
2022/10/25 05:01:45;;;;;;;23.67;9.98;;;;;;;;;;5068912;28;20175;-68
2022/10/25 05:04:10;;;;;;;21.27;10.35;;;;;;;;;;5069067;28;20195;-68
2022/10/25 05:06:36;;;;;;;19.02;10.00;;;;;;;;;;5078226;28;20684;-68
2022/10/25 05:09:03;;;;;;;22.30;10.20;;;;;;;;;;5070301;28;20184;-68
2022/10/25 05:11:29;;;;;;;24.88;10.60;;;;;;;;;;5068416;28;21316;-68
2022/10/25 05:13:54;;;;;;;22.67;10.60;;;;;;;;;;5076148;28;20661;-68
2022/10/25 05:16:23;;;;;;;25.77;11.48;;;;;;;;;;5071739;28;20188;-68
2022/10/25 05:18:50;;;;;;;31.08;11.30;;;;;;;;;;5070504;28;20180;-68
2022/10/25 05:21:17;;;;;;;23.95;10.95;;;;;;;;;;5075164;28;20257;-68
2022/10/25 05:23:43;;;;;;;28.10;11.05;;;;;;;;;;5070127;28;20280;-68
2022/10/25 05:26:12;;;;;;;24.60;11.55;;;;;;;;;;5069628;28;20712;-68
2022/10/25 05:28:39;;;;;;;24.45;11.30;;;;;;;;;;5072253;28;20212;-68
2022/10/25 05:31:10;;;;;;;23.70;12.05;;;;;;;;;;5068967;28;20215;-68
2022/10/25 05:33:36;;;;;;;25.25;10.82;;;;;;;;;;5070335;28;20242;-68
2022/10/25 05:36:02;;;;;;;31.83;12.68;;;;;;;;;;5072523;28;20210;-68
2022/10/25 05:38:28;;;;;;;25.20;10.85;;;;;;;;;;5070960;28;20192;-69
2022/10/25 05:40:59;;;;;;;27.92;12.63;;;;;;;;;;5071746;28;20181;-68
2022/10/25 05:43:25;;;;;;;27.88;12.35;;;;;;;;;;5067646;28;20234;-68
2022/10/25 05:45:51;;;;;;;28.45;12.18;;;;;;;;;;5070386;28;20329;-68
2022/10/25 05:48:17;;;;;;;28.60;12.77;;;;;;;;;;5070752;28;20524;-68
2022/10/25 05:50:43;;;;;;;27.02;12.45;;;;;;;;;;5076126;28;20731;-68
2022/10/25 05:53:09;;;;;;;29.98;12.88;;;;;;;;;;5077945;28;20600;-69
2022/10/25 05:55:35;;;;;;;26.85;12.32;;;;;;;;;;5072230;28;20185;-68
2022/10/25 05:58:01;;;;;;;26.95;12.63;;;;;;;;;;5074335;28;20197;-68
2022/10/25 06:00:26;;;;;;;30.60;12.85;;;;;;;;;;5073250;28;20199;-68
2022/10/25 06:02:51;;;;;;;24.60;12.30;;;;;;;;;;5075708;28;20271;-68
2022/10/25 06:05:16;;;;;;;28.98;12.40;;;;;;;;;;5074215;28;20280;-68
2022/10/25 06:07:42;;;;;;;32.00;12.57;;;;;;;;;;5079645;28;20632;-68
2022/10/25 06:10:08;;;;;;;24.42;12.48;;;;;;;;;;5080260;28;20187;-68
2022/10/25 06:12:33;;;;;;;27.48;12.52;;;;;;;;;;5074421;28;20692;-68
2022/10/25 06:14:58;;;;;;;24.63;12.50;;;;;;;;;;5077809;28;20195;-68
2022/10/25 06:17:24;;;;;;;27.17;13.02;;;;;;;;;;5077868;28;20188;-68
2022/10/25 06:19:49;;;;;;;26.92;12.07;;;;;;;;;;5074066;28;20172;-68
2022/10/25 06:22:14;;;;;;;29.45;12.98;;;;;;;;;;5073222;28;20176;-68
2022/10/25 06:24:40;;;;;;;31.38;13.32;;;;;;;;;;5071464;28;20225;-68
2022/10/25 06:27:05;;;;;;;27.50;13.13;;;;;;;;;;5082523;28;21644;-68
2022/10/25 06:29:30;;;;;;;30.25;13.77;;;;;;;;;;5082788;28;20691;-68
2022/10/25 06:31:56;;;;;;;32.45;13.32;;;;;;;;;;5077451;28;20203;-69
2022/10/25 06:34:21;;;;;;;25.60;13.85;;;;;;;;;;5076068;28;20180;-68
2022/10/25 06:36:46;;;;;;;26.10;13.98;;;;;;;;;;5075494;28;20188;-68
2022/10/25 06:39:12;;;;;;;32.80;13.15;;;;;;;;;;5076206;28;20184;-68
2022/10/25 06:41:37;;;;;;;33.13;13.57;;;;;;;;;;5078013;28;20569;-68
2022/10/25 06:44:03;;;;;;;33.53;14.13;;;;;;;;;;5075135;28;20668;-68
2022/10/25 06:46:31;;;;;;;32.70;12.95;;;;;;;;;;5079654;28;20184;-68
2022/10/25 06:48:58;;;;;;;26.25;13.82;;;;;;;;;;5079246;28;20180;-68
2022/10/25 06:51:24;;;;;;;28.55;13.10;;;;;;;;;;5074358;28;20508;-68
2022/10/25 06:53:57;;;;;;;31.08;13.65;;;;;;;;;;5076518;28;20643;-68
2022/10/25 06:56:24;;;;;;;23.27;12.73;;;;;;;;;;5076588;28;20632;-68
2022/10/25 06:58:49;;;;;;;28.27;14.68;;;;;;;;;;5074792;28;20184;-68
2022/10/25 07:01:16;;;;;;;33.88;13.43;;;;;;;;;;5077442;28;20176;-68
2022/10/25 07:03:42;;;;;;;24.38;13.10;;;;;;;;;;5078502;28;20256;-68
2022/10/25 07:06:10;;;;;;;29.52;13.43;;;;;;;;;;5074147;28;20341;-68
2022/10/25 07:08:37;;;;;;;27.95;14.20;;;;;;;;;;5075990;28;20203;-68
2022/10/25 07:11:03;;;;;;;28.98;14.50;;;;;;;;;;5070147;28;20663;-69
2022/10/25 07:13:31;;;;;;;28.88;14.15;;;;;;;;;;5076976;28;20180;-68
2022/10/25 07:16:07;;;;;;;30.17;13.57;;;;;;;;;;5077701;28;20215;-68
2022/10/25 07:18:33;;;;;;;26.52;14.68;;;;;;;;;;5075013;28;20454;-68
2022/10/25 07:21:07;;;;;;;30.65;16.20;;;;;;;;;;5078859;28;20175;-68
2022/10/25 07:23:33;;;;;;;30.58;15.10;;;;;;;;;;5084497;28;20195;-69
2022/10/25 07:25:59;;;;;;;32.40;15.10;;;;;;;;;;5091181;28;20181;-68
2022/10/25 07:28:25;;;;;;;23.10;12.48;;;;;;;;;;5081814;28;20655;-68
2022/10/25 07:30:50;;;;;;;26.17;16.13;;;;;;;;;;5082656;28;20204;-68
2022/10/25 07:33:18;;;;;;;28.10;15.38;;;;;;;;;;5075179;28;20563;-68
2022/10/25 07:35:47;;;;;;;26.00;15.80;;;;;;;;;;5082807;28;20175;-68
2022/10/25 07:38:13;;;;;;;32.55;16.33;;;;;;;;;;5070672;28;20211;-70
2022/10/25 07:40:38;;;;;;;26.63;15.93;;;;;;;;;;5071544;28;20260;-68
2022/10/25 07:43:04;;;;;;;27.80;16.25;;;;;;;;;;5076880;28;20180;-68
2022/10/25 07:45:29;;;;;;;23.55;15.50;;;;;;;;;;5073380;28;20172;-69
2022/10/25 07:47:54;;;;;;;27.67;15.77;;;;;;;;;;5079443;28;20603;-68
2022/10/25 07:50:20;;;;;;;27.33;15.93;;;;;;;;;;5071599;28;20728;-68
2022/10/25 07:52:45;;;;;;;24.17;14.90;;;;;;;;;;5071841;28;20192;-68
2022/10/25 07:55:11;;;;;;;20.23;14.35;;;;;;;;;;5079321;28;20648;-68
2022/10/25 07:57:37;;;;;;;24.73;14.48;;;;;;;;;;5088111;28;20271;-68
2022/10/25 08:00:03;;;;;;;20.30;13.75;;;;;;;;;;5078440;28;20226;-68
2022/10/25 08:02:29;;;;;;;27.08;14.73;;;;;;;;;;5080865;28;20190;-68
2022/10/25 08:04:54;;;;;;;27.73;15.23;;;;;;;;;;5077688;28;20181;-68
2022/10/25 08:07:19;;;;;;;21.52;14.48;;;;;;;;;;5071526;28;20275;-68
2022/10/25 08:09:44;;;;;;;27.27;13.77;;;;;;;;;;5070058;28;20211;-68
2022/10/25 08:12:10;;;;;;;22.15;14.10;;;;;;;;;;5083719;28;20288;-68
2022/10/25 08:14:35;;;;;;;23.35;14.43;;;;;;;;;;5080752;28;20663;-68
2022/10/25 08:17:00;;;;;;;19.75;13.38;;;;;;;;;;5072278;28;20179;-68
2022/10/25 08:19:26;;;;;;;22.83;14.48;;;;;;;;;;5088050;28;20206;-68
2022/10/25 08:21:51;;;;;;;21.38;12.68;;;;;;;;;;5073892;28;20173;-68
2022/10/25 08:24:16;;;;;;;20.75;13.95;;;;;;;;;;5079139;28;20710;-68
2022/10/25 08:26:42;;;;;;;23.02;13.95;;;;;;;;;;5068094;28;20188;-68
2022/10/25 08:29:07;;;;;;;22.85;13.70;;;;;;;;;;5085939;28;20220;-68
2022/10/25 08:31:35;;;;;;;23.33;13.60;;;;;;;;;;5074602;28;20239;-68
2022/10/25 08:34:00;;;;;;;23.75;13.55;;;;;;;;;;5078810;28;20545;-68
2022/10/25 08:36:26;;;;;;;21.75;13.90;;;;;;;;;;5081823;28;20180;-68
2022/10/25 08:38:52;;;;;;;16.77;12.60;;;;;;;;;;5087975;28;20182;-67
2022/10/25 08:41:22;;;;;;;15.27;11.85;;;;;;;;;;5078607;28;20180;-68
2022/10/25 08:44:09;;;;;;;25.77;13.43;;;;;;;;;;5085138;28;20183;-67
2022/10/25 08:47:03;;;;;;;15.05;11.25;;;;;;;;;;5088992;28;20176;-68
2022/10/25 08:49:47;;;;;;;14.80;10.57;;;;;;;;;;5048418;28;20219;-68
2022/10/25 08:52:36;;;;;;;13.27;10.80;;;;;;;;;;5084972;28;20204;-68
2022/10/25 08:55:04;;;;;;;13.70;9.80;;;;;;;;;;5087699;28;20587;-68
2022/10/25 08:57:33;;;;;;;16.88;10.73;;;;;;;;;;5072347;28;20652;-68
2022/10/25 09:00:06;;;;;;;18.65;10.70;;;;;;;;;;5089291;28;20562;-68
2022/10/25 09:02:52;;;;;;;17.05;9.63;;;;;;;;;;5080112;28;20541;-67
2022/10/25 09:05:23;;;;;;;14.82;9.20;;;;;;;;;;5074021;28;20632;-68
2022/10/25 09:08:00;;;;;;;14.70;9.35;;;;;;;;;;5072554;28;20204;-68
2022/10/25 09:10:39;;;;;;;17.50;9.70;;;;;;;;;;5079847;28;20204;-68
2022/10/25 09:13:40;;;;;;;16.52;10.07;;;;;;;;;;5077601;28;20254;-68
2022/10/25 09:16:16;;;;;;;14.90;9.95;;;;;;;;;;5057282;28;20267;-68
2022/10/25 09:18:53;;;;;;;11.80;9.18;;;;;;;;;;5081613;28;20188;-68
2022/10/25 09:21:43;;;;;;;14.15;9.45;;;;;;;;;;5068725;28;20176;-68
2022/10/25 09:24:47;;;;;;;13.70;8.90;;;;;;;;;;5074951;28;20180;-68
2022/10/25 09:27:18;;;;;;;15.07;8.20;;;;;;;;;;5034608;28;20186;-68
2022/10/25 09:29:48;;;;;;;18.25;8.32;;;;;;;;;;5091030;28;20230;-67
2022/10/25 09:32:24;;;;;;;11.82;7.90;;;;;;;;;;5085826;28;20216;-68
2022/10/25 09:34:51;;;;;;;14.60;7.20;;;;;;;;;;5078660;28;20709;-68
2022/10/25 09:37:24;;;;;;;13.35;7.13;;;;;;;;;;5071643;28;20188;-68
2022/10/25 09:39:53;;;;;;;12.68;7.10;;;;;;;;;;5087707;28;20188;-68
2022/10/25 09:42:29;;;;;;;14.52;6.97;;;;;;;;;;5086900;28;20717;-68
2022/10/25 09:45:00;;;;;;;16.38;6.97;;;;;;;;;;5092403;28;20245;-68
2022/10/25 09:47:49;;;;;;;15.20;6.68;;;;;;;;;;5091059;28;20211;-68
2022/10/25 09:50:34;;;;;;;16.35;7.05;;;;;;;;;;5074905;28;20480;-68
2022/10/25 09:53:11;;;;;;;13.85;6.65;;;;;;;;;;5086287;28;20656;-68
2022/10/25 09:55:49;;;;;;;12.80;6.15;;;;;;;;;;5081312;28;20196;-68
2022/10/25 09:58:30;;;;;;;10.98;5.95;;;;;;;;;;5091146;28;20219;-67
2022/10/25 10:00:59;;;;;;;12.13;6.78;;;;;;;;;;5075203;28;20173;-68
2022/10/25 10:03:30;;;;;;;12.25;6.82;;;;;;;;;;5088662;28;20278;-68
2022/10/25 10:06:00;;;;;;;12.93;6.85;;;;;;;;;;5085788;28;20191;-68
2022/10/25 10:08:27;;;;;;;12.95;6.82;;;;;;;;;;5071359;28;20234;-68
2022/10/25 10:10:53;;;;;;;9.75;5.97;;;;;;;;;;5083108;28;20748;-68
2022/10/25 10:13:35;;;;;;;13.63;6.28;;;;;;;;;;5077795;28;20180;-68
2022/10/25 10:16:35;;;;;;;9.68;7.15;;;;;;;;;;5088123;28;20280;-68
2022/10/25 10:19:30;;;;;;;11.10;7.13;;;;;;;;;;5072790;28;20435;-68
2022/10/25 10:21:59;;;;;;;9.85;6.95;;;;;;;;;;5068604;28;20645;-68
2022/10/25 10:24:39;;;;;;;14.65;6.97;;;;;;;;;;5078062;28;20271;-68
2022/10/25 10:27:08;;;;;;;15.18;6.88;;;;;;;;;;5084023;28;20183;-68
2022/10/25 10:29:36;;;;;;;13.98;6.32;;;;;;;;;;5084365;28;20224;-68
2022/10/25 10:32:05;;;;;;;15.15;7.07;;;;;;;;;;5075983;28;20682;-68
2022/10/25 10:34:36;;;;;;;21.15;6.80;;;;;;;;;;5090668;28;20606;-68
2022/10/25 10:37:16;;;;;;;9.45;5.80;;;;;;;;;;5087040;28;20177;-68
2022/10/25 10:39:50;;;;;;;14.93;5.53;;;;;;;;;;5074018;28;20188;-68
2022/10/25 10:42:21;;;;;;;11.75;5.70;;;;;;;;;;5070252;28;20176;-68
2022/10/25 10:45:00;;;;;;;10.75;5.75;;;;;;;;;;5086084;28;20191;-67
2022/10/25 10:47:30;;;;;;;9.20;5.47;;;;;;;;;;5089638;28;20191;-68
2022/10/25 10:49:56;;;;;;;12.80;6.00;;;;;;;;;;5083257;28;20226;-68
2022/10/25 10:52:27;;;;;;;11.45;6.25;;;;;;;;;;5073162;28;20234;-68
2022/10/25 10:54:54;;;;;;;15.43;6.65;;;;;;;;;;5080738;28;20185;-68
2022/10/25 10:57:33;;;;;;;9.50;6.30;;;;;;;;;;5087153;28;20236;-68
2022/10/25 11:00:00;;;;;;;14.50;5.97;;;;;;;;;;5081333;28;20192;-68
2022/10/25 11:02:31;;;;;;;15.32;6.88;;;;;;;;;;5078872;28;20208;-68
2022/10/25 11:04:56;;;;;;;12.90;5.70;;;;;;;;;;5090674;28;20215;-68
2022/10/25 11:07:41;;;;;;;11.18;5.63;;;;;;;;;;5089778;28;20204;-68
2022/10/25 11:10:16;;;;;;;15.93;6.28;;;;;;;;;;5084817;28;20655;-68
2022/10/25 11:12:42;;;;;;;14.07;6.38;;;;;;;;;;5079881;28;20188;-70
2022/10/25 11:15:14;;;;;;;13.82;5.95;;;;;;;;;;5083933;28;20188;-68
2022/10/25 11:17:56;;;;;;;13.25;7.20;;;;;;;;;;5070626;28;20185;-68
2022/10/25 11:20:32;;;;;;;8.60;6.57;;;;;;;;;;5082263;28;20232;-68
2022/10/25 11:23:07;;;;;;;15.27;6.18;;;;;;;;;;5088335;28;20581;-68
2022/10/25 11:25:51;;;;;;;10.35;7.00;;;;;;;;;;5076712;28;20464;-68
2022/10/25 11:28:47;;;;;;;14.13;7.70;;;;;;;;;;5081538;28;20272;-68
2022/10/25 11:31:30;;;;;;;12.98;7.22;;;;;;;;;;5076157;28;20205;-68
2022/10/25 11:34:18;;;;;;;13.80;7.57;;;;;;;;;;5088128;28;20184;-68
2022/10/25 11:36:49;;;;;;;11.52;7.38;;;;;;;;;;5074388;28;20180;-68
2022/10/25 11:39:30;;;;;;;13.75;8.10;;;;;;;;;;5074892;28;20660;-68
2022/10/25 11:42:21;;;;;;;13.05;6.60;;;;;;;;;;5083174;28;20184;-68
2022/10/25 11:44:53;;;;;;;13.15;7.47;;;;;;;;;;5069419;28;20199;-68
2022/10/25 11:47:46;;;;;;;11.85;7.20;;;;;;;;;;5082773;28;20640;-68
2022/10/25 11:50:24;;;;;;;10.10;6.63;;;;;;;;;;5071379;28;20211;-68
2022/10/25 11:53:13;;;;;;;10.13;5.75;;;;;;;;;;5069497;28;20225;-68
2022/10/25 11:55:46;;;;;;;15.73;6.10;;;;;;;;;;5077192;28;20192;-68
2022/10/25 11:58:29;;;;;;;10.07;5.43;;;;;;;;;;5088810;28;20255;-67
2022/10/25 12:01:05;;;;;;;10.32;5.97;;;;;;;;;;5074331;28;20542;-68
2022/10/25 12:03:58;;;;;;;10.15;5.30;;;;;;;;;;5089811;28;20287;-67
2022/10/25 12:06:28;;;;;;;8.10;4.90;;;;;;;;;;5079271;28;20181;-67
2022/10/25 12:09:22;;;;;;;9.98;4.88;;;;;;;;;;5085506;28;20176;-68
2022/10/25 12:11:55;;;;;;;8.50;5.32;;;;;;;;;;5081263;28;20199;-68
2022/10/25 12:14:40;;;;;;;9.90;5.15;;;;;;;;;;5069395;28;20503;-68
2022/10/25 12:17:31;;;;;;;11.52;5.00;;;;;;;;;;5081308;28;20306;-68
2022/10/25 12:20:00;;;;;;;9.82;6.15;;;;;;;;;;5077267;28;20192;-67
2022/10/25 12:22:35;;;;;;;11.45;5.97;;;;;;;;;;5072088;28;20173;-68
2022/10/25 12:25:17;;;;;;;9.40;5.57;;;;;;;;;;5076112;28;20242;-67
2022/10/25 12:27:44;;;;;;;12.10;6.25;;;;;;;;;;5090051;28;20403;-67
2022/10/25 12:30:16;;;;;;;11.40;5.68;;;;;;;;;;5088719;28;20707;-68
2022/10/25 12:32:56;;;;;;;8.35;5.55;;;;;;;;;;5080239;28;20291;-68
2022/10/25 12:35:27;;;;;;;12.13;5.70;;;;;;;;;;5071095;28;20607;-68
2022/10/25 12:37:56;;;;;;;14.18;5.85;;;;;;;;;;5074073;28;20181;-67
2022/10/25 12:40:23;;;;;;;11.80;5.88;;;;;;;;;;5075991;28;20222;-67
2022/10/25 12:42:53;;;;;;;12.68;6.03;;;;;;;;;;5068638;28;20686;-68
2022/10/25 12:45:56;;;;;;;9.43;5.43;;;;;;;;;;5075425;28;20246;-67
2022/10/25 12:49:02;;;;;;;12.35;5.57;;;;;;;;;;5072676;28;20640;-67
2022/10/25 12:51:45;;;;;;;10.15;5.35;;;;;;;;;;5077529;28;20291;-68
2022/10/25 12:54:37;;;;;;;9.15;5.07;;;;;;;;;;5076640;28;20192;-68
2022/10/25 12:57:20;;;;;;;9.93;4.75;;;;;;;;;;5067794;28;20189;-72
2022/10/25 13:00:15;;;;;;;12.38;5.20;;;;;;;;;;5086125;28;20550;-68
2022/10/25 13:02:57;;;;;;;14.32;4.88;;;;;;;;;;5078084;28;20173;-68
2022/10/25 13:05:37;;;;;;;11.23;5.05;;;;;;;;;;5083136;28;20177;-68
2022/10/25 13:08:05;;;;;;;10.52;5.30;;;;;;;;;;5074845;28;20674;-68
2022/10/25 13:10:40;;;;;;;10.73;4.70;;;;;;;;;;5082996;28;20194;-68
2022/10/25 13:13:15;;;;;;;8.07;5.10;;;;;;;;;;5077564;28;20187;-67
2022/10/25 13:15:55;;;;;;;9.25;5.63;;;;;;;;;;5080550;28;20172;-68
2022/10/25 13:18:32;;;;;;;10.10;5.03;;;;;;;;;;5077670;28;20242;-68
2022/10/25 13:21:03;;;;;;;11.68;5.22;;;;;;;;;;5075722;28;20207;-69
2022/10/25 13:23:41;;;;;;;8.70;4.05;;;;;;;;;;5076091;28;20192;-67
2022/10/25 13:26:11;;;;;;;10.80;4.60;;;;;;;;;;5077540;28;20177;-67
2022/10/25 13:28:44;;;;;;;10.30;4.45;;;;;;;;;;5078019;28;21536;-72
2022/10/25 13:31:27;;;;;;;13.07;4.50;;;;;;;;;;5077355;28;20209;-67
2022/10/25 13:34:10;;;;;;;10.13;4.30;;;;;;;;;;5077356;28;20184;-68
2022/10/25 13:36:51;;;;;;;8.10;4.03;;;;;;;;;;5076271;28;20184;-68
2022/10/25 13:39:23;;;;;;;9.63;4.43;;;;;;;;;;5071826;28;20671;-68
2022/10/25 13:41:49;;;;;;;9.52;4.05;;;;;;;;;;5075235;28;20201;-67
2022/10/25 13:44:19;;;;;;;10.13;4.15;;;;;;;;;;5077481;28;20262;-68
2022/10/25 13:46:46;;;;;;;11.32;3.80;;;;;;;;;;5080444;28;20188;-69
2022/10/25 13:49:32;;;;;;;7.70;3.75;;;;;;;;;;5077220;28;20173;-67
2022/10/25 13:52:03;;;;;;;10.80;4.35;;;;;;;;;;5083640;28;20744;-68
2022/10/25 13:54:52;;;;;;;13.25;4.55;;;;;;;;;;5079980;28;20184;-67
2022/10/25 13:57:48;;;;;;;9.75;3.50;;;;;;;;;;5083482;28;20184;-71
2022/10/25 14:00:28;;;;;;;8.85;3.55;;;;;;;;;;5078704;28;20726;-68
2022/10/25 14:03:09;;;;;;;7.63;3.42;;;;;;;;;;5081721;28;20172;-67
2022/10/25 14:05:52;;;;;;;7.20;3.15;;;;;;;;;;5075050;28;20183;-70
2022/10/25 14:08:39;;;;;;;5.38;2.80;;;;;;;;;;5075159;28;20242;-68
2022/10/25 14:11:11;;;;;;;8.13;3.58;;;;;;;;;;5075005;28;20258;-67
2022/10/25 14:13:52;;;;;;;7.78;4.35;;;;;;;;;;5078333;28;20189;-67
2022/10/25 14:16:28;;;;;;;5.55;3.03;;;;;;;;;;5074699;28;20727;-68
2022/10/25 14:18:59;;;;;;;7.45;3.70;;;;;;;;;;5077462;28;20180;-67
2022/10/25 14:21:25;;;;;;;7.90;3.67;;;;;;;;;;5076425;28;20751;-68
2022/10/25 14:23:51;;;;;;;9.73;3.40;;;;;;;;;;5073855;28;20263;-68
2022/10/25 14:26:20;;;;;;;7.85;3.22;;;;;;;;;;5078403;28;20192;-67
2022/10/25 14:28:45;;;;;;;9.07;3.80;;;;;;;;;;5072723;28;20651;-68
2022/10/25 14:31:19;;;;;;;11.32;3.95;;;;;;;;;;5074750;28;20208;-68
2022/10/25 14:33:52;;;;;;;11.18;3.45;;;;;;;;;;5090819;28;20176;-68
2022/10/25 14:36:28;;;;;;;8.20;3.30;;;;;;;;;;5086130;28;20212;-68
2022/10/25 14:39:15;;;;;;;11.30;4.20;;;;;;;;;;5078283;28;20184;-67
2022/10/25 14:41:49;;;;;;;6.85;3.00;;;;;;;;;;5076035;28;20188;-67
2022/10/25 14:44:26;;;;;;;6.53;3.42;;;;;;;;;;5085606;28;20730;-67
2022/10/25 14:46:53;;;;;;;12.57;3.72;;;;;;;;;;5090113;28;20325;-68
2022/10/25 14:49:18;;;;;;;8.88;3.47;;;;;;;;;;5072087;28;20328;-68
2022/10/25 14:51:45;;;;;;;6.95;3.05;;;;;;;;;;5071194;28;20212;-69